sensor_id;sensor_type;location;lat;lon;timestamp;pressure;altitude;pressure_sealevel;temperature;humidity
75026;BME280;63591;50.080;8.286;2023-02-28T00:00:12;100795.75;;;11.01;40.20
75026;BME280;63591;50.080;8.286;2023-02-28T00:02:40;100794.81;;;11.02;40.25
75026;BME280;63591;50.080;8.286;2023-02-28T00:05:06;100793.84;;;11.03;40.27
75026;BME280;63591;50.080;8.286;2023-02-28T00:07:32;100798.25;;;11.03;40.20
75026;BME280;63591;50.080;8.286;2023-02-28T00:09:58;100793.13;;;11.01;40.26
75026;BME280;63591;50.080;8.286;2023-02-28T00:12:23;100796.72;;;11.00;40.18
75026;BME280;63591;50.080;8.286;2023-02-28T00:14:49;100795.75;;;11.01;40.30
75026;BME280;63591;50.080;8.286;2023-02-28T00:17:15;100796.59;;;11.02;40.30
75026;BME280;63591;50.080;8.286;2023-02-28T00:19:47;100794.81;;;11.02;40.27
75026;BME280;63591;50.080;8.286;2023-02-28T00:22:12;100797.44;;;11.02;40.25
75026;BME280;63591;50.080;8.286;2023-02-28T00:24:37;100793.97;;;11.02;40.30
75026;BME280;63591;50.080;8.286;2023-02-28T00:27:03;100798.38;;;11.01;40.39
75026;BME280;63591;50.080;8.286;2023-02-28T00:29:28;100800.19;;;11.01;40.34
75026;BME280;63591;50.080;8.286;2023-02-28T00:31:53;100803.63;;;11.01;40.36
75026;BME280;63591;50.080;8.286;2023-02-28T00:34:19;100798.38;;;11.01;40.42
75026;BME280;63591;50.080;8.286;2023-02-28T00:36:44;100792.19;;;11.02;40.30
75026;BME280;63591;50.080;8.286;2023-02-28T00:39:11;100792.19;;;11.02;40.41
75026;BME280;63591;50.080;8.286;2023-02-28T00:41:36;100790.50;;;11.01;40.44
75026;BME280;63591;50.080;8.286;2023-02-28T00:44:02;100794.81;;;11.02;40.43
75026;BME280;63591;50.080;8.286;2023-02-28T00:46:27;100793.97;;;11.02;40.42
75026;BME280;63591;50.080;8.286;2023-02-28T00:48:52;100792.19;;;11.02;40.30
75026;BME280;63591;50.080;8.286;2023-02-28T00:51:17;100788.84;;;11.00;40.46
75026;BME280;63591;50.080;8.286;2023-02-28T00:53:43;100788.72;;;11.02;40.54
75026;BME280;63591;50.080;8.286;2023-02-28T00:56:08;100783.34;;;11.03;40.65
75026;BME280;63591;50.080;8.286;2023-02-28T00:58:33;100780.84;;;11.02;40.42
75026;BME280;63591;50.080;8.286;2023-02-28T01:00:59;100789.56;;;11.02;40.45
75026;BME280;63591;50.080;8.286;2023-02-28T01:03:24;100793.97;;;11.02;40.45
75026;BME280;63591;50.080;8.286;2023-02-28T01:05:51;100792.31;;;11.01;40.54
75026;BME280;63591;50.080;8.286;2023-02-28T01:08:18;100795.75;;;11.01;40.46
75026;BME280;63591;50.080;8.286;2023-02-28T01:10:43;100787.88;;;11.01;40.45
75026;BME280;63591;50.080;8.286;2023-02-28T01:13:09;100788.84;;;11.00;40.55
75026;BME280;63591;50.080;8.286;2023-02-28T01:15:34;100788.00;;;10.99;40.61
75026;BME280;63591;50.080;8.286;2023-02-28T01:17:59;100788.00;;;10.99;40.55
75026;BME280;63591;50.080;8.286;2023-02-28T01:20:25;100789.81;;;10.99;40.61
75026;BME280;63591;50.080;8.286;2023-02-28T01:22:50;100788.00;;;10.99;40.71
75026;BME280;63591;50.080;8.286;2023-02-28T01:25:15;100780.22;;;10.98;40.65
75026;BME280;63591;50.080;8.286;2023-02-28T01:27:41;100782.88;;;10.98;40.73
75026;BME280;63591;50.080;8.286;2023-02-28T01:30:07;100781.94;;;10.99;40.69
75026;BME280;63591;50.080;8.286;2023-02-28T01:32:33;100772.22;;;10.99;40.77
75026;BME280;63591;50.080;8.286;2023-02-28T01:34:58;100771.41;;;10.99;40.71
75026;BME280;63591;50.080;8.286;2023-02-28T01:37:23;100777.50;;;10.99;40.84
75026;BME280;63591;50.080;8.286;2023-02-28T01:39:49;100776.78;;;10.97;40.60
75026;BME280;63591;50.080;8.286;2023-02-28T01:42:14;100774.03;;;10.99;40.65
75026;BME280;63591;50.080;8.286;2023-02-28T01:45:00;100782.16;;;10.96;40.89
75026;BME280;63591;50.080;8.286;2023-02-28T01:47:38;100777.59;;;10.98;40.86
75026;BME280;63591;50.080;8.286;2023-02-28T01:50:09;100780.22;;;10.98;40.93
75026;BME280;63591;50.080;8.286;2023-02-28T01:52:37;100780.22;;;10.98;40.98
75026;BME280;63591;50.080;8.286;2023-02-28T01:55:04;100773.31;;;10.97;40.92
75026;BME280;63591;50.080;8.286;2023-02-28T01:57:35;100775.09;;;10.96;41.07
75026;BME280;63591;50.080;8.286;2023-02-28T02:00:16;100767.34;;;10.95;40.84
75026;BME280;63591;50.080;8.286;2023-02-28T02:02:45;100768.06;;;10.97;40.90
75026;BME280;63591;50.080;8.286;2023-02-28T02:05:20;100762.94;;;10.95;40.98
75026;BME280;63591;50.080;8.286;2023-02-28T02:07:48;100760.31;;;10.95;40.91
75026;BME280;63591;50.080;8.286;2023-02-28T02:10:20;100762.81;;;10.97;41.03
75026;BME280;63591;50.080;8.286;2023-02-28T02:13:12;100756.03;;;10.94;40.91
75026;BME280;63591;50.080;8.286;2023-02-28T02:16:13;100753.53;;;10.93;40.84
75026;BME280;63591;50.080;8.286;2023-02-28T02:18:53;100747.28;;;10.94;40.94
75026;BME280;63591;50.080;8.286;2023-02-28T02:35:21;100755.06;;;10.95;41.08
75026;BME280;63591;50.080;8.286;2023-02-28T02:40:22;100756.03;;;10.94;40.96
75026;BME280;63591;50.080;8.286;2023-02-28T02:45:32;100753.53;;;10.93;40.92
75026;BME280;63591;50.080;8.286;2023-02-28T02:48:03;100754.34;;;10.93;41.14
75026;BME280;63591;50.080;8.286;2023-02-28T02:50:34;100756.97;;;10.93;41.01
75026;BME280;63591;50.080;8.286;2023-02-28T02:53:03;100757.81;;;10.94;40.92
75026;BME280;63591;50.080;8.286;2023-02-28T02:55:34;100746.44;;;10.93;41.01
75026;BME280;63591;50.080;8.286;2023-02-28T02:58:04;100748.16;;;10.94;40.96
75026;BME280;63591;50.080;8.286;2023-02-28T03:00:35;100756.97;;;10.93;40.88
75026;BME280;63591;50.080;8.286;2023-02-28T03:03:02;100762.09;;;10.95;40.89
75026;BME280;63591;50.080;8.286;2023-02-28T03:05:41;100758.78;;;10.93;40.77
75026;BME280;63591;50.080;8.286;2023-02-28T03:08:07;100754.22;;;10.95;40.74
75026;BME280;63591;50.080;8.286;2023-02-28T03:10:38;100763.06;;;10.94;40.92
75026;BME280;63591;50.080;8.286;2023-02-28T03:19:11;100757.09;;;10.92;40.58
75026;BME280;63591;50.080;8.286;2023-02-28T03:24:34;100757.09;;;10.92;40.54
75026;BME280;63591;50.080;8.286;2023-02-28T03:27:26;100759.00;;;10.90;40.44
75026;BME280;63591;50.080;8.286;2023-02-28T03:33:06;100752.78;;;10.91;40.41
75026;BME280;63591;50.080;8.286;2023-02-28T03:35:37;100744.91;;;10.91;40.50
75026;BME280;63591;50.080;8.286;2023-02-28T03:38:18;100745.16;;;10.87;40.37
75026;BME280;63591;50.080;8.286;2023-02-28T03:40:49;100747.53;;;10.91;40.40
75026;BME280;63591;50.080;8.286;2023-02-28T03:43:20;100749.34;;;10.90;40.43
75026;BME280;63591;50.080;8.286;2023-02-28T03:45:49;100746.72;;;10.90;40.46
75026;BME280;63591;50.080;8.286;2023-02-28T03:48:20;100745.75;;;10.91;40.62
75026;BME280;63591;50.080;8.286;2023-02-28T03:50:49;100749.19;;;10.92;40.52
75026;BME280;63591;50.080;8.286;2023-02-28T03:55:55;100751.00;;;10.91;40.45
75026;BME280;63591;50.080;8.286;2023-02-28T03:58:27;100751.97;;;10.90;40.42
75026;BME280;63591;50.080;8.286;2023-02-28T04:01:04;100748.50;;;10.90;40.32
75026;BME280;63591;50.080;8.286;2023-02-28T04:03:34;100748.38;;;10.91;40.45
75026;BME280;63591;50.080;8.286;2023-02-28T04:06:00;100744.78;;;10.92;40.56
75026;BME280;63591;50.080;8.286;2023-02-28T04:08:25;100752.66;;;10.92;40.53
75026;BME280;63591;50.080;8.286;2023-02-28T04:10:57;100754.44;;;10.92;40.53
75026;BME280;63591;50.080;8.286;2023-02-28T04:13:25;100755.41;;;10.91;40.42
75026;BME280;63591;50.080;8.286;2023-02-28T04:15:51;100761.75;;;10.88;40.53
75026;BME280;63591;50.080;8.286;2023-02-28T04:18:16;100755.78;;;10.86;40.19
75026;BME280;63591;50.080;8.286;2023-02-28T04:20:41;100754.13;;;10.85;40.45
75026;BME280;63591;50.080;8.286;2023-02-28T04:23:06;100756.75;;;10.85;40.07
75026;BME280;63591;50.080;8.286;2023-02-28T04:25:32;100750.78;;;10.83;40.04
75026;BME280;63591;50.080;8.286;2023-02-28T04:27:57;100749.13;;;10.82;39.79
75026;BME280;63591;50.080;8.286;2023-02-28T04:30:22;100741.34;;;10.80;39.89
75026;BME280;63591;50.080;8.286;2023-02-28T04:32:47;100749.84;;;10.84;39.77
75026;BME280;63591;50.080;8.286;2023-02-28T04:35:13;100745.28;;;10.86;39.85
75026;BME280;63591;50.080;8.286;2023-02-28T04:37:38;100753.88;;;10.88;40.00
75026;BME280;63591;50.080;8.286;2023-02-28T04:40:03;100750.41;;;10.87;40.00
75026;BME280;63591;50.080;8.286;2023-02-28T04:42:29;100751.97;;;10.90;40.11
75026;BME280;63591;50.080;8.286;2023-02-28T04:45:03;100750.16;;;10.91;39.98
75026;BME280;63591;50.080;8.286;2023-02-28T04:47:29;100751.81;;;10.92;39.94
75026;BME280;63591;50.080;8.286;2023-02-28T04:49:55;100756.16;;;10.93;40.06
75026;BME280;63591;50.080;8.286;2023-02-28T04:52:20;100748.38;;;10.91;40.00
75026;BME280;63591;50.080;8.286;2023-02-28T04:54:45;100743.13;;;10.91;40.04
75026;BME280;63591;50.080;8.286;2023-02-28T04:57:11;100749.19;;;10.92;39.92
75026;BME280;63591;50.080;8.286;2023-02-28T04:59:36;100751.81;;;10.92;39.94
75026;BME280;63591;50.080;8.286;2023-02-28T05:02:01;100749.19;;;10.92;39.93
75026;BME280;63591;50.080;8.286;2023-02-28T05:04:34;100754.44;;;10.92;39.89
75026;BME280;63591;50.080;8.286;2023-02-28T05:07:00;100756.38;;;10.90;39.85
75026;BME280;63591;50.080;8.286;2023-02-28T05:09:26;100755.53;;;10.89;39.83
75026;BME280;63591;50.080;8.286;2023-02-28T05:11:53;100756.63;;;10.86;39.79
75026;BME280;63591;50.080;8.286;2023-02-28T05:14:18;100754.84;;;10.87;39.88
75026;BME280;63591;50.080;8.286;2023-02-28T05:16:43;100764.50;;;10.86;39.77
75026;BME280;63591;50.080;8.286;2023-02-28T05:19:09;100759.25;;;10.86;39.76
75026;BME280;63591;50.080;8.286;2023-02-28T05:21:35;100764.50;;;10.86;39.81
75026;BME280;63591;50.080;8.286;2023-02-28T05:24:03;100766.28;;;10.86;39.74
75026;BME280;63591;50.080;8.286;2023-02-28T05:26:29;100769.75;;;10.86;39.63
75026;BME280;63591;50.080;8.286;2023-02-28T05:28:55;100766.16;;;10.87;39.61
75026;BME280;63591;50.080;8.286;2023-02-28T05:31:21;100760.22;;;10.85;39.60
75026;BME280;63591;50.080;8.286;2023-02-28T05:33:46;100763.78;;;10.84;39.50
75026;BME280;63591;50.080;8.286;2023-02-28T05:36:12;100762.13;;;10.83;39.41
75026;BME280;63591;50.080;8.286;2023-02-28T05:38:37;100761.41;;;10.81;39.32
75026;BME280;63591;50.080;8.286;2023-02-28T05:41:10;100767.75;;;10.79;39.24
75026;BME280;63591;50.080;8.286;2023-02-28T05:43:36;100771.31;;;10.78;39.04
75026;BME280;63591;50.080;8.286;2023-02-28T05:46:03;100768.81;;;10.76;38.90
75026;BME280;63591;50.080;8.286;2023-02-28T05:48:29;100769.66;;;10.77;38.93
75026;BME280;63591;50.080;8.286;2023-02-28T05:50:54;100768.81;;;10.76;38.99
75026;BME280;63591;50.080;8.286;2023-02-28T05:53:20;100765.34;;;10.76;38.94
75026;BME280;63591;50.080;8.286;2023-02-28T05:55:45;100766.31;;;10.74;38.76
75026;BME280;63591;50.080;8.286;2023-02-28T05:58:11;100772.53;;;10.73;38.80
75026;BME280;63591;50.080;8.286;2023-02-28T06:00:36;100760.47;;;10.71;38.71
75026;BME280;63591;50.080;8.286;2023-02-28T06:03:01;100774.44;;;10.71;38.62
75026;BME280;63591;50.080;8.286;2023-02-28T06:05:27;100770.97;;;10.71;38.65
75026;BME280;63591;50.080;8.286;2023-02-28T06:07:52;100769.31;;;10.70;38.56
75026;BME280;63591;50.080;8.286;2023-02-28T06:10:18;100771.69;;;10.73;39.00
75026;BME280;63591;50.080;8.286;2023-02-28T06:12:44;100777.66;;;10.75;38.83
75026;BME280;63591;50.080;8.286;2023-02-28T06:15:13;100771.56;;;10.74;38.71
75026;BME280;63591;50.080;8.286;2023-02-28T06:17:39;100780.19;;;10.77;38.76
75026;BME280;63591;50.080;8.286;2023-02-28T06:20:05;100780.28;;;10.75;38.50
75026;BME280;63591;50.080;8.286;2023-02-28T06:22:31;100783.84;;;10.74;38.51
75026;BME280;63591;50.080;8.286;2023-02-28T06:24:56;100779.56;;;10.73;38.57
75026;BME280;63591;50.080;8.286;2023-02-28T06:27:22;100781.47;;;10.71;38.39
75026;BME280;63591;50.080;8.286;2023-02-28T06:29:48;100782.56;;;10.68;38.21
75026;BME280;63591;50.080;8.286;2023-02-28T06:32:13;100793.06;;;10.68;38.25
75026;BME280;63591;50.080;8.286;2023-02-28T06:34:38;100788.78;;;10.67;38.23
75026;BME280;63591;50.080;8.286;2023-02-28T06:37:04;100794.13;;;10.66;38.05
75026;BME280;63591;50.080;8.286;2023-02-28T06:39:30;100793.28;;;10.65;38.01
75026;BME280;63591;50.080;8.286;2023-02-28T06:41:55;100789.72;;;10.66;37.97
75026;BME280;63591;50.080;8.286;2023-02-28T06:44:21;100792.38;;;10.66;37.94
75026;BME280;63591;50.080;8.286;2023-02-28T06:46:47;100795.91;;;10.65;37.76
75026;BME280;63591;50.080;8.286;2023-02-28T06:49:12;100800.25;;;10.66;37.83
75026;BME280;63591;50.080;8.286;2023-02-28T06:51:39;100802.88;;;10.66;37.88
75026;BME280;63591;50.080;8.286;2023-02-28T06:54:05;100804.63;;;10.66;37.81
75026;BME280;63591;50.080;8.286;2023-02-28T06:56:33;100802.03;;;10.66;37.90
75026;BME280;63591;50.080;8.286;2023-02-28T06:58:59;100807.28;;;10.66;37.46
75026;BME280;63591;50.080;8.286;2023-02-28T07:01:24;100802.13;;;10.64;37.59
75026;BME280;63591;50.080;8.286;2023-02-28T07:03:50;100812.63;;;10.64;37.52
75026;BME280;63591;50.080;8.286;2023-02-28T07:06:21;100815.25;;;10.64;37.41
75026;BME280;63591;50.080;8.286;2023-02-28T07:08:48;100816.22;;;10.63;37.36
75026;BME280;63591;50.080;8.286;2023-02-28T07:11:13;100810.13;;;10.63;37.29
75026;BME280;63591;50.080;8.286;2023-02-28T07:13:39;100818.00;;;10.63;37.51
75026;BME280;63591;50.080;8.286;2023-02-28T07:16:06;100813.72;;;10.61;37.15
75026;BME280;63591;50.080;8.286;2023-02-28T07:18:32;100814.66;;;10.60;37.19
75026;BME280;63591;50.080;8.286;2023-02-28T07:20:58;100812.88;;;10.61;37.03
75026;BME280;63591;50.080;8.286;2023-02-28T07:23:23;100821.59;;;10.61;37.15
75026;BME280;63591;50.080;8.286;2023-02-28T07:25:50;100830.41;;;10.60;36.85
75026;BME280;63591;50.080;8.286;2023-02-28T07:28:16;100822.53;;;10.60;36.91
75026;BME280;63591;50.080;8.286;2023-02-28T07:30:41;100822.41;;;10.62;36.74
75026;BME280;63591;50.080;8.286;2023-02-28T07:33:07;100821.47;;;10.63;36.86
75026;BME280;63591;50.080;8.286;2023-02-28T07:35:33;100821.34;;;10.65;36.90
75026;BME280;63591;50.080;8.286;2023-02-28T07:37:59;100820.41;;;10.66;37.01
75026;BME280;63591;50.080;8.286;2023-02-28T07:40:25;100820.28;;;10.67;36.93
75026;BME280;63591;50.080;8.286;2023-02-28T07:42:50;100819.44;;;10.67;36.77
75026;BME280;63591;50.080;8.286;2023-02-28T07:45:16;100819.44;;;10.67;36.79
75026;BME280;63591;50.080;8.286;2023-02-28T07:47:42;100815.84;;;10.68;37.21
75026;BME280;63591;50.080;8.286;2023-02-28T07:50:11;100814.78;;;10.70;37.06
75026;BME280;63591;50.080;8.286;2023-02-28T07:52:38;100812.16;;;10.70;37.04
75026;BME280;63591;50.080;8.286;2023-02-28T07:55:05;100823.47;;;10.71;37.04
75026;BME280;63591;50.080;8.286;2023-02-28T07:57:30;100814.66;;;10.72;37.17
75026;BME280;63591;50.080;8.286;2023-02-28T07:59:55;100819.06;;;10.71;37.18
75026;BME280;63591;50.080;8.286;2023-02-28T08:02:21;100820.84;;;10.71;37.14
75026;BME280;63591;50.080;8.286;2023-02-28T08:04:46;100824.31;;;10.71;37.20
75026;BME280;63591;50.080;8.286;2023-02-28T08:07:13;100828.63;;;10.72;37.21
75026;BME280;63591;50.080;8.286;2023-02-28T08:09:39;100823.25;;;10.74;37.34
75026;BME280;63591;50.080;8.286;2023-02-28T08:12:06;100825.88;;;10.74;37.35
75026;BME280;63591;50.080;8.286;2023-02-28T08:14:31;100818.84;;;10.74;37.28
75026;BME280;63591;50.080;8.286;2023-02-28T08:16:57;100825.75;;;10.76;37.50
75026;BME280;63591;50.080;8.286;2023-02-28T08:19:22;100824.81;;;10.77;38.04
75026;BME280;63591;50.080;8.286;2023-02-28T08:21:47;100832.59;;;10.78;37.72
75026;BME280;63591;50.080;8.286;2023-02-28T08:24:12;100828.13;;;10.79;37.84
75026;BME280;63591;50.080;8.286;2023-02-28T08:26:38;100833.28;;;10.80;37.77
75026;BME280;63591;50.080;8.286;2023-02-28T08:29:03;100827.06;;;10.81;38.70
75026;BME280;63591;50.080;8.286;2023-02-28T08:31:28;100829.44;;;10.84;38.35
75026;BME280;63591;50.080;8.286;2023-02-28T08:33:54;100838.16;;;10.85;38.54
75026;BME280;63591;50.080;8.286;2023-02-28T08:36:23;100838.16;;;10.85;39.62
75026;BME280;63591;50.080;8.286;2023-02-28T08:38:48;100832.78;;;10.86;38.85
75026;BME280;63591;50.080;8.286;2023-02-28T08:41:13;100830.19;;;10.86;38.59
75026;BME280;63591;50.080;8.286;2023-02-28T08:43:39;100836.16;;;10.89;38.51
75026;BME280;63591;50.080;8.286;2023-02-28T08:46:05;100836.16;;;10.89;38.83
75026;BME280;63591;50.080;8.286;2023-02-28T08:48:32;100841.41;;;10.89;38.76
75026;BME280;63591;50.080;8.286;2023-02-28T08:51:04;100840.56;;;10.88;38.57
75026;BME280;63591;50.080;8.286;2023-02-28T08:53:31;100845.69;;;10.90;38.59
75026;BME280;63591;50.080;8.286;2023-02-28T08:56:07;100841.28;;;10.90;38.54
75026;BME280;63591;50.080;8.286;2023-02-28T08:58:33;100840.44;;;10.90;38.61
75026;BME280;63591;50.080;8.286;2023-02-28T09:01:00;100835.19;;;10.90;38.73
75026;BME280;63591;50.080;8.286;2023-02-28T09:03:25;100837.09;;;10.87;38.61
75026;BME280;63591;50.080;8.286;2023-02-28T09:05:56;100841.66;;;10.85;39.26
75026;BME280;63591;50.080;8.286;2023-02-28T09:08:24;100844.03;;;10.89;39.03
75026;BME280;63591;50.080;8.286;2023-02-28T09:10:50;100840.56;;;10.88;38.89
75026;BME280;63591;50.080;8.286;2023-02-28T09:13:17;100837.94;;;10.88;39.10
75026;BME280;63591;50.080;8.286;2023-02-28T09:15:42;100833.41;;;10.90;39.26
75026;BME280;63591;50.080;8.286;2023-02-28T09:18:08;100839.47;;;10.91;38.93
75026;BME280;63591;50.080;8.286;2023-02-28T09:20:33;100835.19;;;10.90;39.09
75026;BME280;63591;50.080;8.286;2023-02-28T09:22:58;100836.03;;;10.90;38.86
75026;BME280;63591;50.080;8.286;2023-02-28T09:25:24;100836.03;;;10.90;39.52
75026;BME280;63591;50.080;8.286;2023-02-28T09:27:49;100827.31;;;10.90;39.80
75026;BME280;63591;50.080;8.286;2023-02-28T09:30:14;100828.00;;;10.92;39.49
75026;BME280;63591;50.080;8.286;2023-02-28T09:32:41;100833.25;;;10.92;39.49
75026;BME280;63591;50.080;8.286;2023-02-28T09:35:06;100837.69;;;10.91;39.44
75026;BME280;63591;50.080;8.286;2023-02-28T09:37:32;100833.97;;;10.94;39.29
75026;BME280;63591;50.080;8.286;2023-02-28T09:39:57;100840.19;;;10.93;39.59
75026;BME280;63591;50.080;8.286;2023-02-28T09:42:33;100829.94;;;10.90;39.26
75026;BME280;63591;50.080;8.286;2023-02-28T09:45:00;100831.59;;;10.91;39.15
75026;BME280;63591;50.080;8.286;2023-02-28T09:47:36;100823.03;;;10.89;38.77
75026;BME280;63591;50.080;8.286;2023-02-28T09:50:35;100833.66;;;10.87;38.67
75026;BME280;63591;50.080;8.286;2023-02-28T09:53:15;100841.13;;;10.92;39.45
75026;BME280;63591;50.080;8.286;2023-02-28T09:56:07;100841.28;;;10.90;38.84
75026;BME280;63591;50.080;8.286;2023-02-28T10:04:08;100843.06;;;10.90;39.04
75026;BME280;63591;50.080;8.286;2023-02-28T10:06:45;100838.78;;;10.89;40.16
75026;BME280;63591;50.080;8.286;2023-02-28T10:09:17;100850.09;;;10.89;38.80
75026;BME280;63591;50.080;8.286;2023-02-28T10:11:46;100836.97;;;10.89;38.86
75026;BME280;63591;50.080;8.286;2023-02-28T10:14:19;100851.78;;;10.90;39.53
75026;BME280;63591;50.080;8.286;2023-02-28T10:16:50;100846.28;;;10.93;39.21
75026;BME280;63591;50.080;8.286;2023-02-28T10:19:31;100840.91;;;10.95;39.71
75026;BME280;63591;50.080;8.286;2023-02-28T10:22:05;100846.03;;;10.96;39.22
75026;BME280;63591;50.080;8.286;2023-02-28T10:24:40;100833.75;;;10.97;39.13
75026;BME280;63591;50.080;8.286;2023-02-28T10:27:20;100842.72;;;10.94;38.88
75026;BME280;63591;50.080;8.286;2023-02-28T10:29:54;100850.72;;;10.93;38.77
75026;BME280;63591;50.080;8.286;2023-02-28T10:32:23;100842.94;;;10.91;38.57
75026;BME280;63591;50.080;8.286;2023-02-28T10:34:57;100840.44;;;10.90;40.46
75026;BME280;63591;50.080;8.286;2023-02-28T10:37:24;100844.72;;;10.91;38.63
75026;BME280;63591;50.080;8.286;2023-02-28T10:39:49;100848.31;;;10.90;38.59
75026;BME280;63591;50.080;8.286;2023-02-28T10:42:25;100848.44;;;10.88;38.22
75026;BME280;63591;50.080;8.286;2023-02-28T10:45:10;100846.91;;;10.85;38.15
75026;BME280;63591;50.080;8.286;2023-02-28T10:47:55;100847.47;;;10.89;38.13
75026;BME280;63591;50.080;8.286;2023-02-28T10:50:44;100833.75;;;10.85;38.02
75026;BME280;63591;50.080;8.286;2023-02-28T10:55:35;100843.06;;;10.90;38.15
75026;BME280;63591;50.080;8.286;2023-02-28T10:58:01;100842.09;;;10.91;38.15
75026;BME280;63591;50.080;8.286;2023-02-28T11:00:33;100838.66;;;10.90;38.04
75026;BME280;63591;50.080;8.286;2023-02-28T11:02:59;100840.44;;;10.90;38.08
75026;BME280;63591;50.080;8.286;2023-02-28T11:07:57;100831.59;;;10.91;37.95
75026;BME280;63591;50.080;8.286;2023-02-28T11:10:28;100824.56;;;10.91;38.14
75026;BME280;63591;50.080;8.286;2023-02-28T11:12:56;100825.25;;;10.93;37.98
75026;BME280;63591;50.080;8.286;2023-02-28T11:15:29;100826.09;;;10.94;37.96
75026;BME280;63591;50.080;8.286;2023-02-28T11:17:58;100823.34;;;10.95;37.94
75026;BME280;63591;50.080;8.286;2023-02-28T11:20:27;100819.88;;;10.95;38.00
75026;BME280;63591;50.080;8.286;2023-02-28T11:22:53;100809.38;;;10.95;37.91
75026;BME280;63591;50.080;8.286;2023-02-28T11:25:24;100811.19;;;10.94;37.90
75026;BME280;63591;50.080;8.286;2023-02-28T11:27:52;100809.38;;;10.95;37.86
75026;BME280;63591;50.080;8.286;2023-02-28T11:30:38;100812.97;;;10.94;37.59
75026;BME280;63591;50.080;8.286;2023-02-28T11:33:23;100806.75;;;10.95;37.81
75026;BME280;63591;50.080;8.286;2023-02-28T11:35:51;100798.75;;;10.96;37.86
75026;BME280;63591;50.080;8.286;2023-02-28T11:38:18;100804.00;;;10.96;37.75
75026;BME280;63591;50.080;8.286;2023-02-28T11:43:33;100809.38;;;10.95;37.69
75026;BME280;63591;50.080;8.286;2023-02-28T11:46:16;100800.56;;;10.96;37.65
75026;BME280;63591;50.080;8.286;2023-02-28T11:51:47;100791.59;;;10.98;38.76
75026;BME280;63591;50.080;8.286;2023-02-28T11:54:51;100796.84;;;10.98;38.74
75026;BME280;63591;50.080;8.286;2023-02-28T12:00:21;100786.78;;;11.04;39.86
75026;BME280;63591;50.080;8.286;2023-02-28T12:03:23;100790.25;;;11.04;38.84
75026;BME280;63591;50.080;8.286;2023-02-28T12:06:05;100783.78;;;11.08;39.95
75026;BME280;63591;50.080;8.286;2023-02-28T12:11:56;100777.72;;;11.08;39.20
75026;BME280;63591;50.080;8.286;2023-02-28T12:20:12;100776.16;;;11.05;39.41
75026;BME280;63591;50.080;8.286;2023-02-28T12:22:59;100776.75;;;11.09;41.58
75026;BME280;63591;50.080;8.286;2023-02-28T12:28:14;100780.94;;;11.11;39.95
75026;BME280;63591;50.080;8.286;2023-02-28T12:31:03;100785.59;;;11.08;39.63
75026;BME280;63591;50.080;8.286;2023-02-28T12:33:38;100789.78;;;11.10;39.78
75026;BME280;63591;50.080;8.286;2023-02-28T12:36:09;100781.66;;;11.14;40.47
75026;BME280;63591;50.080;8.286;2023-02-28T12:38:53;100784.41;;;11.12;39.98
75026;BME280;63591;50.080;8.286;2023-02-28T12:41:29;100787.59;;;11.16;42.20
75026;BME280;63591;50.080;8.286;2023-02-28T12:44:05;100779.72;;;11.16;41.11
75026;BME280;63591;50.080;8.286;2023-02-28T12:46:40;100779.03;;;11.14;40.57
75026;BME280;63591;50.080;8.286;2023-02-28T12:49:16;100771.81;;;11.16;40.33
75026;BME280;63591;50.080;8.286;2023-02-28T12:51:44;100782.09;;;11.19;41.24
75026;BME280;63591;50.080;8.286;2023-02-28T12:56:55;100774.44;;;11.16;40.41
75026;BME280;63591;50.080;8.286;2023-02-28T12:59:30;100767.41;;;11.16;40.35
75026;BME280;63591;50.080;8.286;2023-02-28T13:02:09;100776.84;;;11.19;40.73
75026;BME280;63591;50.080;8.286;2023-02-28T13:05:10;100767.41;;;11.16;40.23
75026;BME280;63591;50.080;8.286;2023-02-28T13:07:59;100762.16;;;11.16;48.18
75026;BME280;63591;50.080;8.286;2023-02-28T13:10:44;100769.81;;;11.19;47.46
75026;BME280;63591;50.080;8.286;2023-02-28T13:13:15;100763.56;;;11.20;41.95
75026;BME280;63591;50.080;8.286;2023-02-28T13:16:06;100768.13;;;11.18;41.89
75026;BME280;63591;50.080;8.286;2023-02-28T13:18:46;100770.66;;;11.20;41.28
75026;BME280;63591;50.080;8.286;2023-02-28T13:21:23;100767.16;;;11.19;41.16
75026;BME280;63591;50.080;8.286;2023-02-28T13:40:13;100765.38;;;11.20;40.59
75026;BME280;63591;50.080;8.286;2023-02-28T13:42:48;100761.06;;;11.19;40.57
75026;BME280;63591;50.080;8.286;2023-02-28T13:45:28;100750.81;;;11.16;40.08
75026;BME280;63591;50.080;8.286;2023-02-28T13:48:01;100752.50;;;11.17;40.05
75026;BME280;63591;50.080;8.286;2023-02-28T13:50:37;100752.63;;;11.15;39.94
75026;BME280;63591;50.080;8.286;2023-02-28T13:55:58;100758.00;;;11.14;39.93
75026;BME280;63591;50.080;8.286;2023-02-28T14:01:25;100753.59;;;11.14;39.41
75026;BME280;63591;50.080;8.286;2023-02-28T14:06:57;100752.38;;;11.18;39.77
75026;BME280;63591;50.080;8.286;2023-02-28T14:09:32;100748.91;;;11.18;39.75
75026;BME280;63591;50.080;8.286;2023-02-28T14:15:03;100754.03;;;11.19;41.66
75026;BME280;63591;50.080;8.286;2023-02-28T14:17:31;100741.75;;;11.20;40.24
75026;BME280;63591;50.080;8.286;2023-02-28T14:19:57;100739.94;;;11.20;40.56
75026;BME280;63591;50.080;8.286;2023-02-28T14:25:11;100748.66;;;11.21;40.04
75026;BME280;63591;50.080;8.286;2023-02-28T14:38:17;100735.03;;;11.16;39.54
75026;BME280;63591;50.080;8.286;2023-02-28T14:40:45;100741.00;;;11.18;42.22
75026;BME280;63591;50.080;8.286;2023-02-28T14:43:20;100741.97;;;11.17;48.78
75026;BME280;63591;50.080;8.286;2023-02-28T14:45:50;100732.88;;;11.21;48.58
75026;BME280;63591;50.080;8.286;2023-02-28T14:48:17;100731.41;;;11.28;46.40
75026;BME280;63591;50.080;8.286;2023-02-28T14:50:49;100729.75;;;11.27;44.42